createdAt,value
2023-02-24T00:00:11.810Z,97.38
2023-02-24T00:01:11.789Z,97.27
2023-02-24T00:02:11.893Z,97.17
2023-02-24T00:03:11.946Z,96.91
2023-02-24T00:04:11.749Z,96.91
2023-02-24T00:05:11.762Z,96.91
2023-02-24T00:06:11.709Z,96.80
2023-02-24T00:07:11.695Z,96.80
2023-02-24T00:08:11.697Z,96.49
2023-02-24T00:09:11.711Z,96.39
2023-02-24T00:10:11.685Z,96.28
2023-02-24T00:11:11.678Z,96.18
2023-02-24T00:12:11.710Z,95.87
2023-02-24T00:13:11.622Z,95.77
2023-02-24T00:14:11.686Z,95.67
2023-02-24T00:15:11.634Z,95.77
2023-02-24T00:16:11.799Z,95.56
2023-02-24T00:17:11.649Z,95.77
2023-02-24T00:18:11.586Z,95.67
2023-02-24T00:19:11.543Z,95.77
2023-02-24T00:20:11.564Z,95.87
2023-02-24T00:21:11.567Z,95.67
2023-02-24T00:22:11.569Z,95.46
2023-02-24T00:23:11.487Z,95.46
2023-02-24T00:24:11.477Z,95.67
2023-02-24T00:25:11.467Z,95.98
2023-02-24T00:26:11.463Z,95.87
2023-02-24T00:27:11.454Z,95.87
2023-02-24T00:28:11.453Z,95.98
2023-02-24T00:29:11.443Z,95.98
2023-02-24T00:30:11.400Z,96.18
2023-02-24T00:31:11.495Z,96.18
2023-02-24T00:32:11.618Z,96.28
2023-02-24T00:33:11.390Z,96.18
2023-02-24T00:34:11.337Z,96.08
2023-02-24T00:35:11.390Z,95.77
2023-02-24T00:36:11.420Z,95.56
2023-02-24T00:37:11.379Z,95.56
2023-02-24T00:38:11.319Z,94.95
2023-02-24T00:39:11.348Z,94.57
2023-02-24T00:40:11.331Z,94.37
2023-02-24T00:41:11.311Z,94.37
2023-02-24T00:42:11.261Z,94.37
2023-02-24T00:43:11.236Z,94.27
2023-02-24T00:44:11.243Z,94.06
2023-02-24T00:45:11.214Z,94.17
2023-02-24T00:46:11.482Z,94.37
2023-02-24T00:47:11.226Z,94.37
2023-02-24T00:48:11.195Z,94.47
2023-02-24T00:49:11.191Z,94.47
2023-02-24T00:50:11.154Z,94.37
2023-02-24T00:51:11.170Z,94.27
2023-02-24T00:52:11.132Z,94.06
2023-02-24T00:53:11.119Z,93.96
2023-02-24T00:54:11.083Z,94.06
2023-02-24T00:55:11.135Z,94.17
2023-02-24T00:56:11.067Z,94.47
2023-02-24T00:57:11.088Z,94.68
2023-02-24T00:58:11.062Z,94.78
2023-02-24T00:59:11.061Z,95.09
2023-02-24T01:00:11.089Z,95.30
2023-02-24T01:01:11.047Z,95.20
2023-02-24T01:02:11.012Z,95.30
2023-02-24T01:03:11.009Z,95.25
2023-02-24T01:04:11.047Z,95.15
2023-02-24T01:05:11.011Z,95.15
2023-02-24T01:06:10.934Z,95.05
2023-02-24T01:07:11.355Z,95.05
2023-02-24T01:08:10.932Z,94.95
2023-02-24T01:09:10.919Z,94.95
2023-02-24T01:10:10.888Z,94.95
2023-02-24T01:11:10.910Z,95.15
2023-02-24T01:12:10.924Z,95.15
2023-02-24T01:13:10.849Z,95.25
2023-02-24T01:14:10.866Z,94.78
2023-02-24T01:15:10.925Z,94.57
2023-02-24T01:16:10.847Z,94.37
2023-02-24T01:17:10.803Z,93.96
2023-02-24T01:18:10.798Z,93.85
2023-02-24T01:19:10.804Z,93.85
2023-02-24T01:20:10.798Z,93.96
2023-02-24T01:21:10.765Z,94.06
2023-02-24T01:22:10.738Z,94.27
2023-02-24T01:23:10.708Z,94.17
2023-02-24T01:24:10.735Z,94.00
2023-02-24T01:25:10.688Z,94.10
2023-02-24T01:26:10.689Z,94.21
2023-02-24T01:27:10.729Z,94.31
2023-02-24T01:28:10.637Z,94.42
2023-02-24T01:29:10.645Z,94.42
2023-02-24T01:30:10.610Z,94.52
2023-02-24T01:31:10.705Z,94.62
2023-02-24T01:32:10.856Z,94.52
2023-02-24T01:33:10.694Z,94.47
2023-02-24T01:34:10.594Z,94.57
2023-02-24T01:35:10.557Z,94.78
2023-02-24T01:36:10.535Z,94.72
2023-02-24T01:37:10.544Z,94.72
2023-02-24T01:38:10.557Z,94.82
2023-02-24T01:39:10.533Z,94.93
2023-02-24T01:40:10.540Z,95.03
2023-02-24T01:41:10.485Z,94.82
2023-02-24T01:42:10.488Z,94.93
2023-02-24T01:43:10.459Z,95.14
2023-02-24T01:44:10.453Z,95.24
2023-02-24T01:45:10.485Z,95.24
2023-02-24T01:46:10.479Z,95.34
2023-02-24T01:47:10.454Z,95.34
2023-02-24T01:48:10.417Z,95.34
2023-02-24T01:49:10.378Z,95.34
2023-02-24T01:50:10.357Z,95.34
2023-02-24T01:51:10.398Z,95.45
2023-02-24T01:52:10.354Z,95.65
2023-02-24T01:53:10.336Z,95.86
2023-02-24T01:54:10.325Z,96.06
2023-02-24T01:55:10.313Z,96.17
2023-02-24T01:56:10.343Z,96.27
2023-02-24T01:57:10.311Z,96.27
2023-02-24T01:58:10.250Z,96.06
2023-02-24T01:59:10.253Z,95.86
2023-02-24T02:00:10.231Z,95.55
2023-02-24T02:01:10.254Z,95.34
2023-02-24T02:02:10.377Z,95.24
2023-02-24T02:03:10.229Z,95.24
2023-02-24T02:04:10.177Z,95.24
2023-02-24T02:05:10.163Z,95.24
2023-02-24T02:06:10.167Z,95.14
2023-02-24T02:07:10.218Z,95.14
2023-02-24T02:08:10.154Z,95.24
2023-02-24T02:09:10.142Z,95.34
2023-02-24T02:10:10.129Z,94.93
2023-02-24T02:11:10.152Z,94.77
2023-02-24T02:12:10.073Z,94.87
2023-02-24T02:13:10.094Z,94.97
2023-02-24T02:14:10.067Z,95.07
2023-02-24T02:15:10.087Z,95.24
2023-02-24T02:16:10.104Z,95.39
2023-02-24T02:17:10.026Z,95.18
2023-02-24T02:18:10.022Z,95.14
2023-02-24T02:19:10.022Z,95.07
2023-02-24T02:20:09.990Z,95.07
2023-02-24T02:21:09.983Z,95.07
2023-02-24T02:22:09.947Z,95.07
2023-02-24T02:23:09.959Z,95.03
2023-02-24T02:24:09.912Z,95.07
2023-02-24T02:25:09.901Z,95.18
2023-02-24T02:26:09.914Z,95.18
2023-02-24T02:27:09.891Z,95.07
2023-02-24T02:28:09.850Z,95.07
2023-02-24T02:29:09.896Z,94.97
2023-02-24T02:30:09.837Z,94.97
2023-02-24T02:31:10.008Z,94.97
2023-02-24T02:32:09.917Z,95.02
2023-02-24T02:33:09.809Z,95.12
2023-02-24T02:34:09.790Z,95.02
2023-02-24T02:35:09.810Z,94.92
2023-02-24T02:36:09.816Z,94.60
2023-02-24T02:37:09.787Z,94.60
2023-02-24T02:38:09.732Z,94.44
2023-02-24T02:39:09.776Z,94.34
2023-02-24T02:40:09.727Z,94.23
2023-02-24T02:41:09.721Z,94.34
2023-02-24T02:42:09.697Z,94.23
2023-02-24T02:43:09.746Z,94.34
2023-02-24T02:44:09.649Z,94.44
2023-02-24T02:45:09.673Z,94.23
2023-02-24T02:46:09.690Z,94.13
2023-02-24T02:47:09.676Z,93.93
2023-02-24T02:48:09.616Z,93.82
2023-02-24T02:49:09.585Z,94.03
2023-02-24T02:50:09.596Z,94.23
2023-02-24T02:51:09.590Z,94.44
2023-02-24T02:52:09.540Z,94.50
2023-02-24T02:53:09.542Z,94.50
2023-02-24T02:54:09.537Z,94.44
2023-02-24T02:55:09.514Z,94.23
2023-02-24T02:56:09.534Z,94.23
2023-02-24T02:57:09.503Z,94.13
2023-02-24T02:58:09.469Z,93.51
2023-02-24T02:59:09.452Z,93.10
2023-02-24T03:00:09.469Z,92.68
2023-02-24T03:01:09.604Z,92.58
2023-02-24T03:02:09.429Z,92.58
2023-02-24T03:03:09.425Z,92.68
2023-02-24T03:04:09.403Z,92.89
2023-02-24T03:05:09.404Z,92.38
2023-02-24T03:06:09.385Z,92.38
2023-02-24T03:07:09.389Z,92.48
2023-02-24T03:08:09.355Z,92.58
2023-02-24T03:09:09.338Z,92.68
2023-02-24T03:10:09.314Z,92.58
2023-02-24T03:11:09.298Z,92.27
2023-02-24T03:12:09.313Z,92.17
2023-02-24T03:13:09.266Z,92.17
2023-02-24T03:14:09.277Z,92.17
2023-02-24T03:15:09.286Z,92.27
2023-02-24T03:16:09.266Z,92.17
2023-02-24T03:17:09.294Z,92.27
2023-02-24T03:18:09.217Z,92.27
2023-02-24T03:19:09.248Z,91.75
2023-02-24T03:20:09.192Z,91.55
2023-02-24T03:25:48.697Z,91.71
2023-02-24T03:26:48.688Z,91.71
2023-02-24T03:27:48.689Z,92.02
2023-02-24T03:28:48.696Z,91.96
2023-02-24T03:29:48.667Z,91.75
2023-02-24T03:30:48.719Z,91.34
2023-02-24T03:31:48.718Z,91.03
2023-02-24T03:32:48.731Z,90.93
2023-02-24T03:33:48.603Z,91.13
2023-02-24T03:34:48.603Z,91.65
2023-02-24T03:35:48.557Z,91.96
2023-02-24T03:36:48.583Z,92.33
2023-02-24T03:37:48.590Z,91.96
2023-02-24T03:38:48.528Z,91.34
2023-02-24T03:39:48.554Z,90.93
2023-02-24T03:40:48.533Z,90.52
2023-02-24T03:41:48.506Z,90.41
2023-02-24T03:42:48.512Z,90.41
2023-02-24T03:43:48.458Z,90.52
2023-02-24T03:44:48.498Z,90.31
2023-02-24T03:45:48.486Z,90.31
2023-02-24T03:46:48.464Z,90.00
2023-02-24T03:47:48.434Z,90.10
2023-02-24T03:48:48.405Z,90.52
2023-02-24T03:49:48.423Z,90.31
2023-02-24T03:50:48.416Z,90.41
2023-02-24T03:51:48.355Z,90.93
2023-02-24T03:52:48.386Z,91.34
2023-02-24T03:53:48.333Z,91.86
2023-02-24T03:54:48.360Z,91.96
2023-02-24T03:55:48.508Z,91.86
2023-02-24T03:56:48.316Z,91.96
2023-02-24T03:57:48.299Z,91.65
2023-02-24T03:58:48.299Z,91.65
2023-02-24T03:59:48.269Z,91.65
2023-02-24T04:00:48.269Z,91.75
2023-02-24T04:01:48.284Z,91.86
2023-02-24T04:02:48.246Z,91.75
2023-02-24T04:03:48.217Z,91.96
2023-02-24T04:04:48.273Z,91.96
2023-02-24T04:05:48.241Z,91.96
2023-02-24T04:06:48.195Z,91.75
2023-02-24T04:07:48.209Z,91.86
2023-02-24T04:08:48.171Z,91.86
2023-02-24T04:09:48.157Z,92.07
2023-02-24T04:10:48.145Z,92.27
2023-02-24T04:11:55.191Z,92.27
2023-02-24T04:12:48.164Z,92.27
2023-02-24T04:13:48.099Z,92.27
2023-02-24T04:14:48.096Z,92.58
2023-02-24T04:15:48.086Z,92.48
2023-02-24T04:16:48.036Z,92.58
2023-02-24T04:17:48.049Z,92.79
2023-02-24T04:18:48.031Z,92.79
2023-02-24T04:19:48.052Z,92.68
2023-02-24T04:20:48.074Z,92.58
2023-02-24T04:21:47.997Z,92.79
2023-02-24T04:22:47.950Z,92.99
2023-02-24T04:23:47.997Z,92.99
2023-02-24T04:24:47.921Z,92.79
2023-02-24T04:25:47.936Z,92.89
2023-02-24T04:26:47.930Z,92.99
2023-02-24T04:27:47.892Z,92.99
2023-02-24T04:28:47.915Z,92.89
2023-02-24T04:29:47.888Z,92.89
2023-02-24T04:30:48.030Z,92.99
2023-02-24T04:31:47.967Z,92.99
2023-02-24T04:32:47.885Z,92.89
2023-02-24T04:33:47.833Z,92.89
2023-02-24T04:34:47.829Z,93.10
2023-02-24T04:35:47.872Z,93.20
2023-02-24T04:36:47.805Z,93.30
2023-02-24T04:37:47.801Z,93.41
2023-02-24T04:38:47.760Z,93.41
2023-02-24T04:39:47.718Z,93.20
2023-02-24T04:40:47.737Z,93.20
2023-02-24T04:41:47.724Z,93.41
2023-02-24T04:42:47.701Z,93.30
2023-02-24T04:43:47.670Z,93.30
2023-02-24T04:44:47.693Z,93.45
2023-02-24T04:45:47.638Z,93.51
2023-02-24T04:46:47.712Z,93.66
2023-02-24T04:47:47.672Z,93.72
2023-02-24T04:48:47.650Z,93.72
2023-02-24T04:49:47.620Z,93.35
2023-02-24T04:50:47.633Z,93.24
2023-02-24T04:51:47.592Z,92.93
2023-02-24T04:52:47.588Z,92.72
2023-02-24T04:53:47.562Z,92.63
2023-02-24T04:54:47.560Z,92.72
2023-02-24T04:55:47.541Z,92.72
2023-02-24T04:56:47.558Z,92.63
2023-02-24T04:57:47.483Z,92.52
2023-02-24T04:58:47.549Z,92.11
2023-02-24T04:59:47.604Z,92.00
2023-02-24T05:00:47.453Z,92.00
2023-02-24T05:01:47.434Z,91.74
2023-02-24T05:02:47.465Z,91.69
2023-02-24T05:03:47.519Z,91.59
2023-02-24T05:04:47.485Z,91.42
2023-02-24T05:05:47.419Z,91.59
2023-02-24T05:06:47.414Z,92.05
2023-02-24T05:07:47.383Z,92.42
2023-02-24T05:08:47.355Z,92.63
2023-02-24T05:09:47.408Z,92.67
2023-02-24T05:10:47.373Z,92.36
2023-02-24T05:11:47.314Z,92.36
2023-02-24T05:12:47.347Z,92.46
2023-02-24T05:13:47.338Z,92.57
2023-02-24T05:14:47.309Z,92.87
2023-02-24T05:15:47.327Z,92.87
2023-02-24T05:16:47.274Z,92.67
2023-02-24T05:17:47.253Z,92.57
2023-02-24T05:18:47.361Z,92.77
2023-02-24T05:19:47.235Z,92.77
2023-02-24T05:20:47.318Z,92.67
2023-02-24T05:21:47.212Z,92.46
2023-02-24T05:22:47.200Z,92.25
2023-02-24T05:23:47.185Z,92.25
2023-02-24T05:24:47.153Z,92.46
2023-02-24T05:25:47.173Z,92.77
2023-02-24T05:26:47.160Z,92.77
2023-02-24T05:27:47.165Z,92.67
2023-02-24T05:28:47.111Z,92.46
2023-02-24T05:29:47.074Z,92.77
2023-02-24T05:30:47.115Z,92.97
2023-02-24T05:31:47.214Z,92.97
2023-02-24T05:32:47.093Z,92.87
2023-02-24T05:33:47.031Z,92.77
2023-02-24T05:34:47.174Z,92.67
2023-02-24T05:35:47.004Z,92.67
2023-02-24T05:36:46.993Z,92.67
2023-02-24T05:37:47.056Z,92.57
2023-02-24T05:38:46.970Z,92.36
2023-02-24T05:39:46.968Z,92.25
2023-02-24T05:40:46.964Z,92.46
2023-02-24T05:41:46.917Z,92.67
2023-02-24T05:42:46.936Z,92.77
2023-02-24T05:43:46.925Z,92.87
2023-02-24T05:44:46.909Z,92.97
2023-02-24T05:45:46.909Z,92.97
2023-02-24T05:46:47.073Z,92.97
2023-02-24T05:47:46.861Z,92.77
2023-02-24T05:48:46.856Z,92.87
2023-02-24T05:49:46.858Z,92.97
2023-02-24T05:50:46.849Z,92.97
2023-02-24T05:51:46.831Z,92.87
2023-02-24T05:52:46.810Z,92.87
2023-02-24T05:53:46.775Z,92.77
2023-02-24T05:54:46.774Z,92.77
2023-02-24T05:55:46.838Z,92.87
2023-02-24T05:56:46.769Z,92.97
2023-02-24T05:57:46.722Z,93.08
2023-02-24T05:58:46.892Z,93.39
2023-02-24T05:59:46.760Z,93.49
2023-02-24T06:00:46.737Z,93.60
2023-02-24T06:01:46.789Z,93.70
2023-02-24T06:02:46.709Z,93.49
2023-02-24T06:03:46.642Z,93.43
2023-02-24T06:04:46.843Z,93.54
2023-02-24T06:05:46.610Z,93.64
2023-02-24T06:06:46.600Z,93.64
2023-02-24T06:07:46.582Z,93.54
2023-02-24T06:08:46.620Z,93.74
2023-02-24T06:09:46.586Z,93.85
2023-02-24T06:10:46.560Z,93.95
2023-02-24T06:11:46.652Z,93.74
2023-02-24T06:12:46.536Z,93.74
2023-02-24T06:13:46.543Z,93.54
2023-02-24T06:14:46.515Z,93.33
2023-02-24T06:15:46.482Z,93.43
2023-02-24T06:16:46.552Z,93.54
2023-02-24T06:17:46.471Z,93.54
2023-02-24T06:18:46.470Z,93.64
2023-02-24T06:19:46.479Z,93.54
2023-02-24T06:20:46.466Z,93.43
2023-02-24T06:21:46.400Z,93.33
2023-02-24T06:22:46.444Z,93.27
2023-02-24T06:23:46.385Z,93.16
2023-02-24T06:24:46.414Z,93.27
2023-02-24T06:25:46.398Z,93.06
2023-02-24T06:26:46.482Z,92.96
2023-02-24T06:27:46.366Z,93.06
2023-02-24T06:28:46.378Z,93.16
2023-02-24T06:29:46.301Z,93.16
2023-02-24T06:30:46.405Z,93.06
2023-02-24T06:31:46.398Z,93.06
2023-02-24T06:32:46.435Z,93.16
2023-02-24T06:33:46.289Z,93.27
2023-02-24T06:34:46.276Z,93.37
2023-02-24T06:35:46.251Z,93.06
2023-02-24T06:36:46.253Z,93.16
2023-02-24T06:37:46.226Z,93.16
2023-02-24T06:38:46.273Z,92.96
2023-02-24T06:39:46.260Z,92.96
2023-02-24T06:40:46.211Z,92.96
2023-02-24T06:41:46.159Z,93.06
2023-02-24T06:42:46.182Z,93.16
2023-02-24T06:43:46.170Z,93.12
2023-02-24T06:44:46.157Z,93.06
2023-02-24T06:45:46.216Z,92.85
2023-02-24T06:46:46.105Z,92.91
2023-02-24T06:47:46.089Z,93.02
2023-02-24T06:48:46.113Z,92.71
2023-02-24T06:49:46.068Z,92.71
2023-02-24T06:50:46.083Z,92.91
2023-02-24T06:51:46.036Z,92.71
2023-02-24T06:52:46.023Z,92.91
2023-02-24T06:53:46.044Z,93.02
2023-02-24T06:54:46.006Z,92.71
2023-02-24T06:55:45.984Z,92.61
2023-02-24T06:56:45.959Z,92.81
2023-02-24T06:57:46.052Z,92.91
2023-02-24T06:58:45.985Z,93.12
2023-02-24T06:59:45.957Z,93.12
2023-02-24T07:00:46.054Z,93.02
2023-02-24T07:01:45.935Z,93.02
2023-02-24T07:02:45.915Z,93.02
2023-02-24T07:03:45.946Z,92.91
2023-02-24T07:04:45.879Z,93.12
2023-02-24T07:05:45.865Z,93.23
2023-02-24T07:06:45.888Z,93.23
2023-02-24T07:07:45.878Z,93.23
2023-02-24T07:08:45.813Z,93.23
2023-02-24T07:09:45.861Z,93.23
2023-02-24T07:10:45.813Z,93.43
2023-02-24T07:11:46.907Z,93.33
2023-02-24T07:12:45.744Z,93.23
2023-02-24T07:13:45.803Z,93.12
2023-02-24T07:14:45.725Z,92.50
2023-02-24T07:15:45.751Z,92.40
2023-02-24T07:16:45.858Z,92.40
2023-02-24T07:17:47.654Z,92.61
2023-02-24T07:18:45.671Z,92.40
2023-02-24T07:19:45.717Z,92.19
2023-02-24T07:20:45.677Z,92.09
2023-02-24T07:21:45.644Z,92.09
2023-02-24T07:22:45.627Z,92.19
2023-02-24T07:23:45.649Z,92.19
2023-02-24T07:24:45.608Z,91.99
2023-02-24T07:25:45.616Z,92.09
2023-02-24T07:26:45.568Z,91.57
2023-02-24T07:27:45.568Z,91.36
2023-02-24T07:28:45.587Z,91.47
2023-02-24T07:29:45.593Z,91.67
2023-02-24T07:30:45.636Z,91.78
2023-02-24T07:31:45.691Z,91.57
2023-02-24T07:32:45.561Z,91.47
2023-02-24T07:33:45.487Z,91.88
2023-02-24T07:34:45.487Z,91.78
2023-02-24T07:35:45.506Z,91.99
2023-02-24T07:36:45.472Z,91.99
2023-02-24T07:37:46.803Z,91.99
2023-02-24T07:38:45.472Z,91.78
2023-02-24T07:39:45.452Z,91.57
2023-02-24T07:40:45.396Z,91.47
2023-02-24T07:41:45.414Z,91.67
2023-02-24T07:42:45.380Z,91.36
2023-02-24T07:43:45.390Z,91.05
2023-02-24T07:44:45.364Z,90.74
2023-02-24T07:45:45.381Z,90.74
2023-02-24T07:46:45.339Z,90.95
2023-02-24T07:47:45.333Z,90.95
2023-02-24T07:48:45.274Z,90.84
2023-02-24T07:49:45.736Z,90.84
2023-02-24T07:50:45.291Z,91.01
2023-02-24T07:51:45.283Z,91.11
2023-02-24T07:52:45.239Z,91.22
2023-02-24T07:53:45.296Z,91.32
2023-02-24T07:54:45.334Z,91.22
2023-02-24T07:55:45.243Z,91.01
2023-02-24T07:56:45.216Z,90.80
2023-02-24T07:57:45.224Z,90.19
2023-02-24T07:58:45.173Z,90.39
2023-02-24T07:59:45.149Z,90.66
2023-02-24T08:00:45.148Z,90.66
2023-02-24T08:01:45.314Z,90.45
2023-02-24T08:02:45.160Z,90.25
2023-02-24T08:03:45.102Z,90.14
2023-02-24T08:04:45.076Z,90.04
2023-02-24T08:05:45.133Z,89.94
2023-02-24T08:06:47.669Z,89.73
2023-02-24T08:07:45.074Z,89.42
2023-02-24T08:08:45.026Z,89.11
2023-02-24T08:09:45.160Z,88.80
2023-02-24T08:10:44.995Z,88.80
2023-02-24T08:11:45.017Z,88.90
2023-02-24T08:12:45.023Z,88.84
2023-02-24T08:13:45.010Z,88.74
2023-02-24T08:14:44.972Z,88.64
2023-02-24T08:15:45.044Z,88.74
2023-02-24T08:16:44.946Z,88.74
2023-02-24T08:17:44.916Z,88.84
2023-02-24T08:18:44.932Z,88.74
2023-02-24T08:19:44.904Z,89.15
2023-02-24T08:20:44.864Z,88.94
2023-02-24T08:21:44.906Z,89.11
2023-02-24T08:22:44.842Z,89.11
2023-02-24T08:23:44.880Z,89.01
2023-02-24T08:24:44.891Z,89.01
2023-02-24T08:25:44.815Z,89.01
2023-02-24T08:26:44.901Z,89.11
2023-02-24T08:27:44.838Z,89.22
2023-02-24T08:28:44.765Z,89.11
2023-02-24T08:29:44.781Z,88.80
2023-02-24T08:30:45.392Z,88.80
2023-02-24T08:31:44.884Z,88.39
2023-02-24T08:32:44.836Z,88.39
2023-02-24T08:33:44.733Z,88.59
2023-02-24T08:34:44.704Z,88.90
2023-02-24T08:35:45.312Z,89.42
2023-02-24T08:36:44.682Z,89.73
2023-02-24T08:37:44.708Z,89.73
2023-02-24T08:38:44.637Z,89.42
2023-02-24T08:39:44.657Z,89.22
2023-02-24T08:40:44.610Z,89.01
2023-02-24T08:41:44.620Z,89.22
2023-02-24T08:42:44.640Z,89.32
2023-02-24T08:43:44.590Z,89.42
2023-02-24T08:44:44.616Z,89.62
2023-02-24T08:45:44.615Z,89.62
2023-02-24T08:46:44.562Z,89.42
2023-02-24T08:47:44.567Z,89.42
2023-02-24T08:48:44.568Z,89.83
2023-02-24T08:49:46.926Z,90.14
2023-02-24T08:50:44.519Z,90.35
2023-02-24T08:51:44.484Z,90.25
2023-02-24T08:52:44.510Z,90.04
2023-02-24T08:53:44.475Z,89.94
2023-02-24T08:54:44.440Z,90.25
2023-02-24T08:55:44.437Z,90.35
2023-02-24T08:56:44.410Z,90.14
2023-02-24T08:57:44.403Z,90.04
2023-02-24T08:58:44.415Z,90.14
2023-02-24T08:59:44.441Z,90.14
2023-02-24T09:00:44.374Z,89.94
2023-02-24T09:01:46.809Z,89.83
2023-02-24T09:02:45.374Z,89.32
2023-02-24T09:03:44.364Z,89.62
2023-02-24T09:04:44.334Z,89.32
2023-02-24T09:05:44.357Z,89.22
2023-02-24T09:06:44.569Z,89.11
2023-02-24T09:07:44.282Z,88.59
2023-02-24T09:08:44.289Z,88.70
2023-02-24T09:09:44.290Z,87.97
2023-02-24T09:10:44.247Z,87.56
2023-02-24T09:11:44.302Z,87.56
2023-02-24T09:12:44.223Z,87.25
2023-02-24T09:13:44.211Z,87.66
2023-02-24T09:14:44.218Z,87.76
2023-02-24T09:15:44.229Z,87.97
2023-02-24T09:16:44.224Z,87.87
2023-02-24T09:17:44.146Z,87.00
2023-02-24T09:18:44.121Z,87.00
2023-02-24T09:19:44.150Z,86.07
2023-02-24T09:20:44.186Z,85.28
2023-02-24T09:21:44.112Z,85.97
2023-02-24T09:22:44.136Z,86.11
2023-02-24T09:23:44.095Z,84.87
2023-02-24T09:24:44.076Z,84.45
2023-02-24T09:25:44.312Z,83.73
2023-02-24T09:26:44.145Z,84.25
2023-02-24T09:27:44.173Z,84.05
2023-02-24T09:28:44.165Z,84.45
2023-02-24T09:29:44.191Z,84.77
2023-02-24T09:30:44.057Z,84.77
2023-02-24T09:31:44.336Z,84.77
2023-02-24T09:32:44.162Z,84.25
2023-02-24T09:33:43.988Z,84.25
2023-02-24T09:34:44.293Z,83.84
2023-02-24T09:35:43.993Z,83.73
2023-02-24T09:36:43.917Z,83.73
2023-02-24T09:37:43.921Z,83.94
2023-02-24T09:38:44.807Z,83.63
2023-02-24T09:39:43.985Z,83.32
2023-02-24T09:40:44.076Z,83.32
2023-02-24T09:41:43.912Z,82.80
2023-02-24T09:42:43.981Z,82.18
2023-02-24T09:43:43.835Z,81.87
2023-02-24T09:44:43.982Z,81.56
2023-02-24T09:45:45.421Z,81.46
2023-02-24T09:46:43.848Z,81.05
2023-02-24T09:47:43.955Z,80.84
2023-02-24T09:48:44.136Z,81.35
2023-02-24T09:49:44.881Z,81.25
2023-02-24T09:51:01.546Z,81.67
2023-02-24T09:51:46.005Z,81.77
2023-02-24T09:52:43.767Z,82.18
2023-02-24T09:53:43.721Z,82.35
2023-02-24T09:54:43.662Z,82.66
2023-02-24T09:55:43.701Z,82.97
2023-02-24T09:56:43.649Z,82.66
2023-02-24T09:57:43.768Z,81.84
2023-02-24T09:58:44.371Z,81.84
2023-02-24T09:59:43.636Z,82.15
2023-02-24T10:00:43.724Z,82.15
2023-02-24T10:01:43.611Z,82.15
2023-02-24T10:02:43.690Z,81.63
2023-02-24T10:03:43.573Z,81.73
2023-02-24T10:04:43.551Z,81.73
2023-02-24T10:05:43.580Z,81.63
2023-02-24T10:06:43.548Z,81.52
2023-02-24T10:07:43.520Z,81.63
2023-02-24T10:08:43.506Z,81.73
2023-02-24T10:09:43.488Z,81.63
2023-02-24T10:10:43.471Z,81.84
2023-02-24T10:11:43.484Z,82.15
2023-02-24T10:12:51.042Z,82.56
2023-02-24T10:13:43.467Z,82.00
2023-02-24T10:14:51.088Z,81.90
2023-02-24T10:15:44.436Z,80.97
2023-02-24T10:16:43.424Z,80.60
2023-02-24T10:17:43.453Z,80.39
2023-02-24T10:18:43.392Z,79.77
2023-02-24T10:19:43.380Z,79.87
2023-02-24T10:20:43.381Z,80.08
2023-02-24T10:21:43.328Z,80.18
2023-02-24T10:22:43.326Z,79.66
2023-02-24T10:23:43.388Z,80.29
2023-02-24T10:24:43.313Z,80.80
2023-02-24T10:25:43.310Z,80.08
2023-02-24T10:26:48.425Z,79.56
2023-02-24T10:27:44.330Z,79.97
2023-02-24T10:28:43.228Z,80.18
2023-02-24T10:29:43.395Z,80.60
2023-02-24T10:30:43.483Z,80.49
2023-02-24T10:31:43.469Z,80.90
2023-02-24T10:32:43.287Z,80.08
2023-02-24T10:33:43.224Z,80.35
2023-02-24T10:34:43.149Z,80.25
2023-02-24T10:35:43.179Z,79.66
2023-02-24T10:36:43.143Z,79.56
2023-02-24T10:37:43.134Z,80.08
2023-02-24T10:38:43.165Z,80.29
2023-02-24T10:39:43.142Z,80.70
2023-02-24T10:40:43.089Z,80.90
2023-02-24T10:41:43.148Z,80.18
2023-02-24T10:42:43.101Z,79.77
2023-02-24T10:43:43.147Z,79.87
2023-02-24T10:44:44.749Z,80.60
2023-02-24T10:45:43.045Z,79.70
2023-02-24T10:46:43.615Z,79.91
2023-02-24T10:47:43.049Z,79.80
2023-02-24T10:48:42.998Z,80.43
2023-02-24T10:49:43.042Z,80.18
2023-02-24T10:50:54.997Z,80.39
2023-02-24T10:51:43.970Z,80.39
2023-02-24T10:52:42.982Z,79.97
2023-02-24T10:53:44.568Z,80.18
2023-02-24T10:54:42.962Z,80.80
2023-02-24T10:55:42.923Z,81.11
2023-02-24T10:56:42.861Z,80.74
2023-02-24T10:57:57.950Z,80.32
2023-02-24T10:58:43.861Z,80.32
2023-02-24T10:59:42.885Z,80.74
2023-02-24T11:00:42.850Z,81.15
2023-02-24T11:01:42.885Z,81.46
2023-02-24T11:02:42.882Z,81.15
2023-02-24T11:03:42.834Z,81.52
2023-02-24T11:04:42.763Z,81.94
2023-02-24T11:05:42.760Z,81.42
2023-02-24T11:06:42.766Z,81.73
2023-02-24T11:07:42.749Z,81.42
2023-02-24T11:08:42.730Z,81.32
2023-02-24T11:09:42.718Z,81.42
2023-02-24T11:10:42.733Z,81.63
2023-02-24T11:11:42.695Z,81.73
2023-02-24T11:12:42.675Z,81.01
2023-02-24T11:13:42.703Z,81.42
2023-02-24T11:14:42.660Z,81.84
2023-02-24T11:15:44.433Z,82.15
2023-02-24T11:16:42.652Z,82.45
2023-02-24T11:17:42.607Z,82.80
2023-02-24T11:18:42.640Z,83.49
2023-02-24T11:19:42.610Z,83.42
2023-02-24T11:20:49.333Z,83.22
2023-02-24T11:21:43.792Z,83.63
2023-02-24T11:22:42.562Z,83.94
2023-02-24T11:23:42.539Z,83.42
2023-02-24T11:24:42.548Z,82.90
2023-02-24T11:25:42.494Z,83.67
2023-02-24T11:26:42.495Z,83.15
2023-02-24T11:27:42.507Z,82.95
2023-02-24T11:28:42.496Z,83.05
2023-02-24T11:29:42.443Z,82.95
2023-02-24T11:30:42.524Z,83.67
2023-02-24T11:31:42.605Z,84.08
2023-02-24T11:32:42.543Z,84.66
2023-02-24T11:33:42.401Z,85.18
2023-02-24T11:34:42.436Z,84.87
2023-02-24T11:35:42.369Z,84.25
2023-02-24T11:36:42.376Z,84.15
2023-02-24T11:37:43.433Z,84.87
2023-02-24T11:38:42.365Z,84.25
2023-02-24T11:39:42.309Z,83.77
2023-02-24T11:40:42.311Z,84.19
2023-02-24T11:41:42.334Z,85.18
2023-02-24T11:42:42.309Z,85.49
2023-02-24T11:43:42.298Z,85.28
2023-02-24T11:44:42.345Z,84.70
2023-02-24T11:45:43.020Z,84.60
2023-02-24T11:46:42.341Z,84.77
2023-02-24T11:47:42.244Z,84.77
2023-02-24T11:48:42.212Z,84.29
2023-02-24T11:49:42.216Z,84.81
2023-02-24T11:50:42.238Z,85.53
2023-02-24T11:51:42.180Z,85.84
2023-02-24T11:52:42.183Z,85.11
2023-02-24T11:53:42.166Z,84.91
2023-02-24T11:54:42.138Z,85.84
2023-02-24T11:55:42.175Z,86.29
2023-02-24T11:56:42.138Z,85.57
2023-02-24T11:57:42.103Z,85.78
2023-02-24T11:58:42.108Z,86.81
2023-02-24T11:59:42.093Z,86.71
2023-02-24T12:00:42.083Z,87.12
2023-02-24T12:01:42.062Z,86.91
2023-02-24T12:02:42.080Z,86.91
2023-02-24T12:03:42.029Z,87.02
2023-02-24T12:04:41.998Z,87.12
2023-02-24T12:05:42.034Z,87.12
2023-02-24T12:06:41.977Z,87.02
2023-02-24T12:07:41.984Z,87.12
2023-02-24T12:08:42.007Z,87.54
2023-02-24T12:09:41.960Z,87.33
2023-02-24T12:10:41.923Z,88.06
2023-02-24T12:11:41.904Z,88.57
2023-02-24T12:12:41.916Z,88.46
2023-02-24T12:13:41.895Z,88.46
2023-02-24T12:14:41.916Z,87.74
2023-02-24T12:15:41.845Z,88.16
2023-02-24T12:16:41.931Z,89.29
2023-02-24T12:17:41.817Z,89.09
2023-02-24T12:18:41.933Z,88.67
2023-02-24T12:19:42.050Z,89.09
2023-02-24T12:20:41.797Z,89.81
2023-02-24T12:21:41.812Z,90.02
2023-02-24T12:22:41.817Z,89.40
2023-02-24T12:23:41.783Z,90.02
2023-02-24T12:24:41.771Z,89.71
2023-02-24T12:25:41.725Z,90.12
2023-02-24T12:26:41.781Z,90.23
2023-02-24T12:27:41.738Z,90.74
2023-02-24T12:28:41.704Z,91.26
2023-02-24T12:29:41.720Z,90.53
2023-02-24T12:30:41.722Z,90.74
2023-02-24T12:31:41.811Z,90.74
2023-02-24T12:32:42.009Z,91.05
2023-02-24T12:33:41.653Z,91.36
2023-02-24T12:34:41.634Z,91.05
2023-02-24T12:35:41.622Z,90.64
2023-02-24T12:36:41.632Z,91.05
2023-02-24T12:37:41.604Z,91.47
2023-02-24T12:38:41.664Z,91.99
2023-02-24T12:39:41.547Z,92.19
2023-02-24T12:40:41.534Z,92.30
2023-02-24T12:41:41.557Z,92.50
2023-02-24T12:42:41.530Z,92.19
2023-02-24T12:43:41.489Z,91.57
2023-02-24T12:44:41.539Z,91.47
2023-02-24T12:45:41.547Z,91.78
2023-02-24T12:46:41.491Z,92.24
2023-02-24T12:47:41.472Z,92.03
2023-02-24T12:48:41.462Z,92.44
2023-02-24T12:49:41.423Z,92.76
2023-02-24T12:50:41.458Z,93.06
2023-02-24T12:51:41.382Z,93.48
2023-02-24T12:52:41.385Z,93.37
2023-02-24T12:53:41.370Z,93.58
2023-02-24T12:54:41.395Z,93.68
2023-02-24T12:55:41.352Z,94.06
2023-02-24T12:56:41.358Z,94.37